Terminal Aerodrome Forecast
Issued by NWS Wichita, KS

Home | Current Version | Previous Version | Graphics & Text | Print | Product List | Glossary On
Versions: 1 2 3 4 5 6 7 8 9 10 11 12 13 14 15 16 17 18 19 20
719
FTUS43 KICT 272322
TAFICT
TAF
KICT 272322Z 2800/2824 VRB06KT P6SM VCTS SCT035CB BKN050
      TEMPO 2800/2801 2SM +TSRA OVC025CB
     FM280500 15007KT P6SM SCT090
     FM280900 17008KT 6SM BR SCT009
      TEMPO 2809/2813 4SM BR BKN009
     FM281500 28008KT P6SM SCT040=

USA.gov is the U.S. government's official web portal to all federal, state and local government web resources and services.